Time;durP1;ratioP1;P1;durP2;ratioP2;P2;SDS_P1;SDS_P2;PMS_P1;PMS_P2;Temp;Humidity;BMP_temperature;BMP_pressure;BME280_temperature;BME280_humidity;BME280_pressure;Samples;Min_cycle;Max_cycle;Signal;HPM_P1;HPM_P2
2022/12/09 00:01:35;;;;;;;10.00;7.65;;;-2.80;99.90;;;;;;4964294;28;20054;-86
2022/12/09 00:04:03;;;;;;;13.07;9.23;;;-2.80;99.90;;;;;;4948039;28;20081;-86
2022/12/09 00:06:32;;;;;;;19.17;8.00;;;-2.70;99.90;;;;;;4930582;28;20047;-85
2022/12/09 00:09:00;;;;;;;13.60;8.55;;;-2.70;99.90;;;;;;4942646;28;20042;-86
2022/12/09 00:11:28;;;;;;;11.88;7.45;;;-2.70;99.90;;;;;;4940767;28;20047;-85
2022/12/09 00:13:57;;;;;;;11.38;7.65;;;-2.80;99.90;;;;;;4949832;28;20061;-86
2022/12/09 00:16:25;;;;;;;9.05;7.63;;;-2.80;99.90;;;;;;4956986;28;20047;-86
2022/12/09 00:18:53;;;;;;;13.10;8.20;;;-2.90;99.90;;;;;;4946037;28;20047;-86
2022/12/09 00:21:26;;;;;;;13.65;7.50;;;-3.10;99.90;;;;;;4957911;28;20043;-86
2022/12/09 00:23:57;;;;;;;14.75;10.13;;;-2.90;99.90;;;;;;4939411;29;20064;-85
2022/12/09 00:26:26;;;;;;;10.23;8.05;;;-2.80;99.90;;;;;;4943450;28;20062;-86
2022/12/09 00:28:58;;;;;;;12.25;9.70;;;-2.80;99.90;;;;;;4964218;28;20047;-86
2022/12/09 00:31:28;;;;;;;11.50;8.93;;;-2.90;99.90;;;;;;4944142;28;20070;-85
2022/12/09 00:33:59;;;;;;;14.27;8.23;;;-3.10;99.90;;;;;;4957425;28;20055;-86
2022/12/09 00:36:28;;;;;;;12.43;6.60;;;-3.10;99.90;;;;;;4942550;28;20053;-85
2022/12/09 00:38:57;;;;;;;12.63;10.05;;;-3.10;99.90;;;;;;4936079;28;20050;-86
2022/12/09 00:41:26;;;;;;;15.63;8.80;;;-3.10;99.90;;;;;;4934213;28;20054;-87
2022/12/09 00:43:55;;;;;;;10.80;7.68;;;-3.00;99.90;;;;;;4947202;28;20062;-85
2022/12/09 00:46:23;;;;;;;11.82;7.55;;;-2.90;99.90;;;;;;4937452;28;20055;-85
2022/12/09 00:48:51;;;;;;;16.30;9.55;;;-2.90;99.90;;;;;;4962999;28;20043;-85
2022/12/09 00:51:23;;;;;;;11.27;6.07;;;-2.90;99.90;;;;;;4944085;28;20061;-85
2022/12/09 00:53:53;;;;;;;3.45;3.33;;;-2.90;99.90;;;;;;4960716;28;20043;-85
2022/12/09 00:56:23;;;;;;;9.35;7.55;;;-2.90;99.90;;;;;;4956520;28;20051;-85
2022/12/09 00:58:51;;;;;;;14.43;8.88;;;-2.80;99.90;;;;;;4945567;28;20055;-85
2022/12/09 01:01:19;;;;;;;11.15;6.72;;;-2.60;99.90;;;;;;4941572;28;20047;-86
2022/12/09 01:03:46;;;;;;;8.60;7.70;;;-2.60;99.90;;;;;;4960074;28;20050;-85
2022/12/09 01:06:20;;;;;;;12.13;8.27;;;-2.90;99.90;;;;;;4944911;28;20055;-87
2022/12/09 01:08:51;;;;;;;12.38;7.47;;;-3.10;99.90;;;;;;4964352;28;20043;-85
2022/12/09 01:11:23;;;;;;;12.20;6.80;;;-3.20;99.90;;;;;;4932357;29;20051;-85
2022/12/09 01:13:52;;;;;;;10.90;8.05;;;-3.20;99.90;;;;;;4944000;28;20040;-85
2022/12/09 01:16:24;;;;;;;15.38;8.57;;;-3.20;99.90;;;;;;4958035;28;20047;-86
2022/12/09 01:18:58;;;;;;;10.98;8.35;;;-3.10;99.90;;;;;;4947944;28;20046;-85
2022/12/09 01:21:27;;;;;;;14.27;8.82;;;-3.10;99.90;;;;;;4926155;28;20077;-86
2022/12/09 01:23:55;;;;;;;9.52;7.93;;;-3.10;99.90;;;;;;4948448;28;20073;-85
2022/12/09 01:26:22;;;;;;;10.00;7.45;;;-3.20;99.90;;;;;;4926978;28;20050;-86
2022/12/09 01:28:51;;;;;;;9.30;7.03;;;-3.20;99.90;;;;;;4965580;28;20046;-87
2022/12/09 01:31:23;;;;;;;16.15;7.40;;;-3.30;99.90;;;;;;4957339;28;20050;-86
2022/12/09 01:33:56;;;;;;;10.20;7.38;;;-3.30;99.90;;;;;;4926774;28;20042;-86
2022/12/09 01:36:27;;;;;;;12.00;7.70;;;-3.20;99.90;;;;;;4960162;28;20044;-86
2022/12/09 01:39:05;;;;;;;9.75;6.75;;;-3.20;99.90;;;;;;4939129;28;20416;-86
2022/12/09 01:41:33;;;;;;;14.90;8.20;;;-3.30;99.90;;;;;;4938491;28;20047;-85
2022/12/09 01:44:08;;;;;;;10.25;7.38;;;-3.30;99.90;;;;;;4946866;28;20051;-86
2022/12/09 01:46:36;;;;;;;17.35;9.95;;;-3.30;99.90;;;;;;4946170;28;20059;-86
2022/12/09 01:49:08;;;;;;;12.80;9.05;;;-3.30;99.90;;;;;;4948212;28;20065;-86
2022/12/09 01:51:37;;;;;;;;;;;-3.20;99.90;;;;;;4966896;28;20053;-86
2022/12/09 01:54:05;;;;;;;9.45;7.28;;;-3.20;99.90;;;;;;4945544;28;19926;-86
2022/12/09 01:56:35;;;;;;;15.32;9.82;;;-3.10;99.90;;;;;;4927327;28;20038;-86
2022/12/09 01:59:12;;;;;;;11.60;8.05;;;-3.20;99.90;;;;;;4942895;28;20047;-86
2022/12/09 02:01:41;;;;;;;11.60;8.85;;;-3.20;99.90;;;;;;4941602;28;20049;-83
2022/12/09 02:04:10;;;;;;;11.32;7.47;;;-3.20;99.90;;;;;;4940252;28;20051;-83
2022/12/09 02:06:41;;;;;;;10.07;8.60;;;-3.30;99.90;;;;;;4948087;28;20056;-83
2022/12/09 02:09:14;;;;;;;10.20;7.43;;;-3.40;99.90;;;;;;4923771;28;20469;-83
2022/12/09 02:12:06;;;;;;;13.20;9.27;;;-3.40;99.90;;;;;;4941361;28;20050;-83
2022/12/09 02:14:53;;;;;;;9.23;5.22;;;-3.30;99.90;;;;;;4940655;28;20046;-83
2022/12/09 02:17:40;;;;;;;15.43;8.43;;;-3.20;99.90;;;;;;4942417;28;20061;-83
2022/12/09 02:20:27;;;;;;;15.60;7.80;;;-3.20;99.90;;;;;;4937502;28;20051;-83
2022/12/09 02:23:18;;;;;;;8.63;6.88;;;-3.10;99.90;;;;;;4933052;28;20054;-83
2022/12/09 02:25:51;;;;;;;18.60;7.97;;;-3.10;99.90;;;;;;4955394;28;20051;-83
2022/12/09 02:28:39;;;;;;;10.30;8.68;;;-3.10;99.90;;;;;;4955708;28;20054;-83
2022/12/09 02:31:42;;;;;;;13.40;8.48;;;-3.10;99.90;;;;;;4944170;28;20084;-82
2022/12/09 02:34:17;;;;;;;32.72;9.25;;;-3.00;99.90;;;;;;4902820;28;20043;-83
2022/12/09 02:37:24;;;;;;;14.55;9.90;;;-3.00;99.90;;;;;;4960220;28;20419;-83
2022/12/09 02:40:01;;;;;;;13.98;8.27;;;-2.90;99.90;;;;;;4931483;28;20057;-83
2022/12/09 02:42:35;;;;;;;11.80;6.35;;;-2.90;99.90;;;;;;4946832;28;20050;-83
2022/12/09 02:45:07;;;;;;;9.45;7.95;;;-2.80;99.90;;;;;;4941877;28;20043;-83
2022/12/09 02:47:48;;;;;;;11.00;8.15;;;-2.80;99.90;;;;;;4951075;28;20058;-82
2022/12/09 02:50:22;;;;;;;15.63;12.30;;;-2.60;99.90;;;;;;4958137;28;20039;-83
2022/12/09 02:52:52;;;;;;;11.60;8.95;;;-2.50;99.90;;;;;;4936748;29;20043;-82
2022/12/09 02:55:23;;;;;;;16.10;10.38;;;-2.50;99.90;;;;;;4936206;28;20050;-83
2022/12/09 02:57:58;;;;;;;15.25;11.40;;;-2.40;99.90;;;;;;4921415;28;20158;-83
2022/12/09 03:00:28;;;;;;;13.90;8.90;;;-2.40;99.90;;;;;;4932686;28;20521;-83
2022/12/09 03:03:01;;;;;;;18.05;9.80;;;-2.40;99.90;;;;;;4950811;28;20053;-83
2022/12/09 03:06:01;;;;;;;14.73;9.38;;;-2.40;99.90;;;;;;4959321;28;20035;-83
2022/12/09 03:08:51;;;;;;;10.60;6.75;;;-2.30;99.90;;;;;;4961078;28;20423;-83
2022/12/09 03:11:21;;;;;;;14.68;8.70;;;-2.30;99.90;;;;;;4924852;29;20051;-83
2022/12/09 03:14:36;;;;;;;13.48;10.05;;;-2.30;99.90;;;;;;4951305;28;20054;-83
2022/12/09 03:17:29;;;;;;;12.52;8.75;;;-2.30;99.90;;;;;;4903480;28;20054;-83
2022/12/09 03:20:21;;;;;;;9.25;7.65;;;-2.40;99.90;;;;;;4953746;28;20047;-83
2022/12/09 03:22:52;;;;;;;11.55;7.53;;;-2.40;99.90;;;;;;4961622;28;20051;-83
2022/12/09 03:25:32;;;;;;;12.55;8.77;;;-2.40;99.90;;;;;;4945975;28;20481;-83
2022/12/09 03:28:04;;;;;;;14.02;8.00;;;-2.40;99.90;;;;;;4955814;28;20046;-84
2022/12/09 03:30:37;;;;;;;8.68;7.68;;;-2.40;99.90;;;;;;4960094;28;20061;-83
2022/12/09 03:33:05;;;;;;;8.82;6.80;;;-2.50;99.90;;;;;;4935890;28;20055;-83
2022/12/09 03:35:38;;;;;;;12.38;7.68;;;-2.50;99.90;;;;;;4952218;28;20050;-83
2022/12/09 03:38:09;;;;;;;13.82;8.40;;;-2.60;99.90;;;;;;4942058;28;20053;-83
2022/12/09 03:40:38;;;;;;;10.50;9.23;;;-2.60;99.90;;;;;;4970885;28;20069;-83
2022/12/09 03:43:23;;;;;;;14.65;7.30;;;-2.80;99.90;;;;;;4970881;28;20423;-83
2022/12/09 03:45:53;;;;;;;12.02;6.97;;;-2.80;99.90;;;;;;4972281;28;20050;-83
2022/12/09 03:48:22;;;;;;;18.15;8.85;;;-2.80;99.90;;;;;;4942868;28;20045;-83
2022/12/09 03:51:09;;;;;;;13.52;8.32;;;-2.80;99.90;;;;;;4931837;28;20058;-83
2022/12/09 03:53:50;;;;;;;9.00;6.90;;;-2.80;99.90;;;;;;4940789;28;20047;-83
2022/12/09 03:56:25;;;;;;;14.15;8.82;;;-2.80;99.90;;;;;;4956320;28;20672;-83
2022/12/09 03:58:55;;;;;;;12.18;7.65;;;-2.70;99.90;;;;;;4939957;28;20059;-83
2022/12/09 04:01:25;;;;;;;17.20;10.50;;;-2.70;99.90;;;;;;4947360;28;20054;-83
2022/12/09 04:03:55;;;;;;;11.40;8.98;;;-2.80;99.90;;;;;;4923555;28;20047;-83
2022/12/09 04:06:24;;;;;;;15.77;8.15;;;-2.80;99.90;;;;;;4941932;28;20050;-83
2022/12/09 04:08:52;;;;;;;14.85;9.63;;;-2.80;99.90;;;;;;4935585;28;20046;-83
2022/12/09 04:11:30;;;;;;;8.30;6.68;;;-3.00;99.90;;;;;;4906888;28;20415;-83
2022/12/09 04:13:58;;;;;;;21.08;7.85;;;-3.00;99.90;;;;;;4960923;28;20048;-83
2022/12/09 04:16:26;;;;;;;16.65;9.10;;;-3.10;99.90;;;;;;4959099;28;20039;-83
2022/12/09 04:18:54;;;;;;;11.32;9.43;;;-3.10;99.90;;;;;;4936603;28;20438;-83
2022/12/09 04:21:21;;;;;;;7.60;6.88;;;-3.10;99.90;;;;;;4941041;28;20406;-83
2022/12/09 04:23:49;;;;;;;8.95;8.05;;;-3.10;99.90;;;;;;4953304;28;20055;-83
2022/12/09 04:26:20;;;;;;;7.82;7.05;;;-3.10;99.90;;;;;;4955316;28;20053;-83
2022/12/09 04:28:49;;;;;;;;;;;-3.00;99.90;;;;;;4926356;28;20043;-83
2022/12/09 04:31:20;;;;;;;9.70;7.13;;;-3.00;99.90;;;;;;4951153;28;19922;-84
2022/12/09 04:33:48;;;;;;;12.17;7.37;;;-2.90;99.90;;;;;;4940616;28;20039;-83
2022/12/09 04:36:18;;;;;;;10.30;7.18;;;-2.90;99.90;;;;;;4944325;28;20298;-83
2022/12/09 04:38:47;;;;;;;11.10;7.72;;;-2.80;99.90;;;;;;4947209;28;20046;-84
2022/12/09 04:41:15;;;;;;;9.45;7.75;;;-2.80;99.90;;;;;;4930634;28;20054;-84
2022/12/09 04:43:43;;;;;;;8.02;6.22;;;-2.80;99.90;;;;;;4926716;28;20046;-84
2022/12/09 04:46:13;;;;;;;10.18;6.88;;;-3.00;99.90;;;;;;4927705;28;20063;-84
2022/12/09 04:48:42;;;;;;;6.38;4.88;;;-3.10;99.90;;;;;;4962755;28;20523;-84
2022/12/09 04:51:11;;;;;;;9.40;7.55;;;-3.00;99.90;;;;;;4958042;28;20051;-84
2022/12/09 04:53:43;;;;;;;11.30;4.70;;;-3.00;99.90;;;;;;4965020;28;20035;-84
2022/12/09 04:56:14;;;;;;;8.65;4.95;;;-2.80;99.90;;;;;;4956655;28;20423;-84
2022/12/09 04:58:43;;;;;;;6.00;4.20;;;-2.80;99.90;;;;;;4958584;28;20039;-84
2022/12/09 05:01:14;;;;;;;7.43;5.25;;;-2.70;99.90;;;;;;4942440;28;20055;-83
2022/12/09 05:03:51;;;;;;;7.00;4.35;;;-2.60;99.90;;;;;;4944300;28;20049;-83
2022/12/09 05:06:20;;;;;;;7.88;4.22;;;-2.60;99.90;;;;;;4948011;28;20486;-84
2022/12/09 05:08:49;;;;;;;11.52;5.63;;;-2.50;99.90;;;;;;4936626;28;20058;-83
2022/12/09 05:11:18;;;;;;;5.40;4.68;;;-2.50;99.90;;;;;;4959908;28;20047;-83
2022/12/09 05:13:50;;;;;;;4.90;4.15;;;-2.40;99.90;;;;;;4940472;28;20055;-84
2022/12/09 05:16:19;;;;;;;4.03;3.80;;;-2.30;99.90;;;;;;4925626;28;20042;-84
2022/12/09 05:18:48;;;;;;;4.50;3.95;;;-2.30;99.90;;;;;;4945234;28;20048;-83
2022/12/09 05:21:19;;;;;;;7.97;5.15;;;-2.20;99.90;;;;;;4959142;28;20046;-83
2022/12/09 05:23:47;;;;;;;3.45;3.13;;;-2.10;99.90;;;;;;4935533;28;20039;-84
2022/12/09 05:26:17;;;;;;;10.02;6.13;;;-2.10;99.90;;;;;;4961808;28;20046;-84
2022/12/09 05:28:47;;;;;;;9.45;4.63;;;-2.20;99.90;;;;;;4911950;28;20038;-83
2022/12/09 05:31:18;;;;;;;6.93;6.30;;;-2.20;99.90;;;;;;4944304;28;20054;-83
2022/12/09 05:33:47;;;;;;;4.68;4.38;;;-2.20;99.90;;;;;;4957718;28;20039;-83
2022/12/09 05:36:18;;;;;;;7.43;6.63;;;-2.20;99.90;;;;;;4936748;28;20050;-84
2022/12/09 05:38:46;;;;;;;;;;;-2.20;99.90;;;;;;4944160;28;20062;-84
2022/12/09 05:41:15;;;;;;;7.60;5.63;;;-2.20;99.90;;;;;;4930636;28;19926;-84
2022/12/09 05:43:43;;;;;;;4.65;4.30;;;-2.30;99.90;;;;;;4946385;28;20050;-83
2022/12/09 05:46:12;;;;;;;8.55;6.35;;;-2.30;99.90;;;;;;4945730;28;20068;-83
2022/12/09 05:48:41;;;;;;;7.78;6.43;;;-2.30;99.90;;;;;;4943559;28;20047;-83
2022/12/09 05:51:31;;;;;;;6.72;4.80;;;-2.30;99.90;;;;;;4957381;28;20097;-83
2022/12/09 05:54:01;;;;;;;15.15;10.43;;;-2.30;99.90;;;;;;4924891;28;20047;-83
2022/12/09 05:56:31;;;;;;;11.55;7.80;;;-2.30;99.90;;;;;;4942895;28;20051;-83
2022/12/09 05:59:02;;;;;;;9.25;6.72;;;-2.30;99.90;;;;;;4969485;28;20435;-83
2022/12/09 06:01:30;;;;;;;9.57;8.30;;;-2.30;99.90;;;;;;4970073;28;20048;-83
2022/12/09 06:03:58;;;;;;;14.05;8.00;;;-2.30;99.90;;;;;;4967283;28;20050;-83
2022/12/09 06:06:28;;;;;;;14.95;9.35;;;-2.30;99.90;;;;;;4954132;28;20039;-84
2022/12/09 06:08:59;;;;;;;11.00;6.57;;;-2.30;99.90;;;;;;4969885;28;20422;-84
2022/12/09 06:11:27;;;;;;;14.20;8.63;;;-2.40;99.90;;;;;;4951043;28;20704;-83
2022/12/09 06:13:56;;;;;;;23.75;15.80;;;-2.40;99.90;;;;;;4962337;28;20047;-84
2022/12/09 06:16:24;;;;;;;17.20;12.05;;;-2.40;99.90;;;;;;4945876;28;20046;-84
2022/12/09 06:18:53;;;;;;;13.02;9.45;;;-2.40;99.90;;;;;;4956862;28;20415;-82
2022/12/09 06:21:23;;;;;;;12.07;8.40;;;-2.40;99.90;;;;;;4924074;29;20662;-82
2022/12/09 06:23:52;;;;;;;11.63;5.90;;;-2.30;99.90;;;;;;4936734;28;20042;-84
2022/12/09 06:26:26;;;;;;;14.80;8.52;;;-2.30;99.90;;;;;;4971018;28;20047;-85
2022/12/09 06:28:58;;;;;;;9.48;7.65;;;-2.30;99.90;;;;;;4952465;28;20057;-84
2022/12/09 06:31:28;;;;;;;11.65;7.85;;;-2.30;99.90;;;;;;4953068;28;20043;-83
2022/12/09 06:33:57;;;;;;;4.93;4.65;;;-2.30;99.90;;;;;;4970337;28;20055;-83
2022/12/09 06:36:30;;;;;;;14.65;9.90;;;-2.30;99.90;;;;;;4950103;28;20051;-83
2022/12/09 06:39:01;;;;;;;20.98;10.48;;;-2.30;99.90;;;;;;4967087;28;20149;-82
2022/12/09 06:41:41;;;;;;;12.77;10.15;;;-2.30;99.90;;;;;;4969428;28;20050;-83
2022/12/09 06:44:11;;;;;;;9.32;8.63;;;-2.20;99.90;;;;;;4941000;28;20057;-83
2022/12/09 06:46:47;;;;;;;16.88;10.43;;;-2.30;99.90;;;;;;4970413;28;20050;-82
2022/12/09 06:49:16;;;;;;;12.23;8.07;;;-2.20;99.90;;;;;;4949908;28;20048;-83
2022/12/09 06:51:45;;;;;;;18.65;10.07;;;-2.20;99.90;;;;;;4944231;28;20043;-83
2022/12/09 06:54:13;;;;;;;15.20;7.75;;;-2.20;99.90;;;;;;4944431;28;20043;-82
2022/12/09 06:56:41;;;;;;;26.13;13.85;;;-2.20;99.90;;;;;;4950121;28;20400;-83
2022/12/09 06:59:10;;;;;;;10.57;9.27;;;-2.20;99.90;;;;;;4951336;28;20058;-82
2022/12/09 07:01:38;;;;;;;42.42;24.00;;;-2.20;99.90;;;;;;4969178;28;20039;-82
2022/12/09 07:04:07;;;;;;;35.55;20.23;;;-2.20;99.90;;;;;;4936574;28;20055;-82
2022/12/09 07:06:40;;;;;;;13.27;10.82;;;-2.20;99.90;;;;;;4953231;28;20046;-82
2022/12/09 07:09:15;;;;;;;28.90;18.92;;;-2.10;99.90;;;;;;4956537;28;20047;-82
2022/12/09 07:11:45;;;;;;;11.65;8.85;;;-2.10;99.90;;;;;;4944818;28;20403;-82
2022/12/09 07:14:17;;;;;;;30.77;15.88;;;-2.10;99.90;;;;;;4948086;28;20109;-83
2022/12/09 07:16:45;;;;;;;24.13;13.38;;;-2.10;99.90;;;;;;4926704;28;20410;-83
2022/12/09 07:19:20;;;;;;;39.60;23.77;;;-2.10;99.90;;;;;;4949464;28;20046;-82
2022/12/09 07:21:51;;;;;;;32.13;18.85;;;-2.00;99.90;;;;;;4943961;28;20046;-83
2022/12/09 07:24:19;;;;;;;34.85;21.70;;;-2.00;99.90;;;;;;4966101;28;20051;-82
2022/12/09 07:26:51;;;;;;;30.42;13.48;;;-2.00;99.90;;;;;;4933105;28;20046;-83
2022/12/09 07:29:19;;;;;;;30.83;17.58;;;-1.90;99.90;;;;;;4956792;28;20054;-83
2022/12/09 07:31:47;;;;;;;39.92;16.40;;;-1.90;99.90;;;;;;4962535;28;20049;-84
2022/12/09 07:34:18;;;;;;;19.88;17.90;;;-1.90;99.90;;;;;;4959112;28;20043;-83
2022/12/09 07:36:45;;;;;;;37.45;20.23;;;-1.90;99.90;;;;;;4940361;28;20043;-83
2022/12/09 07:39:15;;;;;;;20.13;12.90;;;-1.90;99.90;;;;;;4938254;28;20058;-82
2022/12/09 07:41:55;;;;;;;24.90;15.10;;;-1.90;99.90;;;;;;4931856;29;20470;-83
2022/12/09 07:44:28;;;;;;;32.53;15.18;;;-1.90;99.90;;;;;;4931548;29;20043;-83
2022/12/09 07:46:59;;;;;;;35.22;22.65;;;-1.80;99.90;;;;;;4933001;29;20396;-83
2022/12/09 07:49:28;;;;;;;10.73;9.25;;;-1.80;99.90;;;;;;4950880;28;20051;-83
2022/12/09 07:51:57;;;;;;;24.00;16.13;;;-1.80;99.90;;;;;;4951320;28;20055;-85
2022/12/09 07:54:24;;;;;;;22.17;10.15;;;-1.80;99.90;;;;;;4936246;28;20410;-84
2022/12/09 07:56:52;;;;;;;30.85;17.13;;;-1.80;99.90;;;;;;4970742;28;20034;-84
2022/12/09 07:59:23;;;;;;;29.20;18.00;;;-1.80;99.90;;;;;;4969572;28;20058;-85
2022/12/09 08:01:50;;;;;;;16.38;11.90;;;-1.70;99.90;;;;;;4970271;28;20066;-83
2022/12/09 08:04:18;;;;;;;32.25;15.88;;;-1.70;99.90;;;;;;4951873;28;20043;-84
2022/12/09 08:06:46;;;;;;;24.88;14.45;;;-1.70;99.90;;;;;;4951476;28;20058;-83
2022/12/09 08:09:14;;;;;;;30.95;15.90;;;-1.70;99.90;;;;;;4938239;28;20035;-84
2022/12/09 08:11:44;;;;;;;38.88;15.60;;;-1.70;99.90;;;;;;4945737;28;20043;-83
2022/12/09 08:14:13;;;;;;;34.63;18.27;;;-1.70;99.90;;;;;;4971437;28;20047;-84
2022/12/09 08:16:44;;;;;;;34.95;17.27;;;-1.70;99.90;;;;;;4955918;28;20454;-83
2022/12/09 08:19:12;;;;;;;29.20;17.08;;;-1.60;99.90;;;;;;4955641;28;20049;-84
2022/12/09 08:21:42;;;;;;;26.45;15.95;;;-1.60;99.90;;;;;;4954940;28;20050;-84
2022/12/09 08:24:11;;;;;;;27.90;15.80;;;-1.50;99.90;;;;;;4972449;28;20493;-84
2022/12/09 08:26:40;;;;;;;12.25;10.35;;;-1.50;99.90;;;;;;4949998;28;20391;-83
2022/12/09 08:29:10;;;;;;;23.38;15.80;;;-1.50;99.90;;;;;;4968083;28;20054;-83
2022/12/09 08:31:40;;;;;;;37.38;19.27;;;-1.50;99.90;;;;;;4970956;28;20059;-84
2022/12/09 08:34:09;;;;;;;39.60;19.88;;;-1.60;99.90;;;;;;4953082;28;20598;-84
2022/12/09 08:36:37;;;;;;;33.83;14.57;;;-1.50;99.90;;;;;;4951758;28;20059;-83
2022/12/09 08:39:05;;;;;;;34.83;17.65;;;-1.50;99.90;;;;;;4974174;28;20054;-84
2022/12/09 08:41:35;;;;;;;38.80;18.35;;;-1.50;99.90;;;;;;4963169;28;20066;-85
2022/12/09 08:44:24;;;;;;;19.42;11.02;;;-1.50;99.90;;;;;;4938766;28;20058;-83
2022/12/09 08:46:52;;;;;;;37.72;19.33;;;-1.50;99.90;;;;;;4975220;28;20043;-84
2022/12/09 08:49:21;;;;;;;44.22;15.60;;;-1.50;99.90;;;;;;4928684;29;20043;-85
2022/12/09 08:51:51;;;;;;;33.72;17.88;;;-1.50;99.90;;;;;;4928311;28;20047;-86
2022/12/09 08:54:21;;;;;;;33.05;17.45;;;-1.50;99.90;;;;;;4945943;29;20062;-86
2022/12/09 08:56:51;;;;;;;26.33;17.33;;;-1.50;99.90;;;;;;4947734;28;20054;-86
2022/12/09 08:59:19;;;;;;;24.88;15.45;;;-1.50;99.90;;;;;;4930043;29;20082;-85
2022/12/09 09:01:47;;;;;;;26.30;12.77;;;-1.50;99.90;;;;;;4961478;28;20043;-86
2022/12/09 09:04:18;;;;;;;28.08;15.30;;;-1.50;99.90;;;;;;4949249;28;20079;-85
2022/12/09 09:06:48;;;;;;;14.97;13.13;;;-1.50;99.90;;;;;;4931966;28;20059;-85
2022/12/09 09:09:18;;;;;;;30.05;15.02;;;-1.60;99.90;;;;;;4946314;28;20044;-85
2022/12/09 09:11:47;;;;;;;23.85;15.18;;;-1.60;99.90;;;;;;4940911;28;20407;-86
2022/12/09 09:14:16;;;;;;;29.83;17.40;;;-1.60;99.90;;;;;;4955654;28;20043;-87
2022/12/09 09:16:45;;;;;;;31.48;18.48;;;-1.60;99.90;;;;;;4940525;28;20420;-86
2022/12/09 09:19:24;;;;;;;23.15;14.95;;;-1.50;99.90;;;;;;4945399;28;20058;-87
2022/12/09 09:21:54;;;;;;;29.17;14.68;;;-1.50;99.90;;;;;;4939144;28;20051;-86
2022/12/09 09:24:24;;;;;;;31.60;19.30;;;-1.40;99.90;;;;;;4937352;28;20058;-87
2022/12/09 09:26:53;;;;;;;39.20;18.85;;;-1.40;99.90;;;;;;4939453;28;20051;-87
2022/12/09 09:29:22;;;;;;;30.27;15.10;;;-1.30;99.90;;;;;;4919845;28;20050;-87
2022/12/09 09:31:52;;;;;;;29.00;17.20;;;-1.30;99.90;;;;;;4945887;28;20058;-87
2022/12/09 09:34:24;;;;;;;25.48;15.50;;;-1.30;99.90;;;;;;4966603;28;20059;-86
2022/12/09 09:36:54;;;;;;;42.95;19.92;;;-1.20;99.90;;;;;;4951403;28;20054;-87
2022/12/09 09:39:24;;;;;;;32.58;15.43;;;-1.30;99.90;;;;;;4933393;28;20797;-87
2022/12/09 09:41:56;;;;;;;35.97;19.60;;;-1.20;99.90;;;;;;4914071;28;20385;-87
2022/12/09 09:44:46;;;;;;;35.45;18.85;;;-1.30;99.90;;;;;;4950735;28;20058;-88
2022/12/09 09:47:40;;;;;;;27.75;14.15;;;-1.20;99.90;;;;;;4946405;28;20047;-87
2022/12/09 09:50:40;;;;;;;14.20;7.28;;;-1.10;99.90;;;;;;4916781;29;20047;-87
2022/12/09 09:53:31;;;;;;;23.83;13.68;;;-1.00;99.90;;;;;;4944163;28;20050;-87
2022/12/09 09:56:03;;;;;;;31.67;15.10;;;-1.10;99.90;;;;;;4957399;28;20069;-88
2022/12/09 09:59:05;;;;;;;10.15;9.30;;;-1.10;99.90;;;;;;4942567;28;20312;-87
2022/12/09 10:01:36;;;;;;;32.50;15.32;;;-1.10;99.90;;;;;;4945335;28;20066;-88
2022/12/09 10:04:24;;;;;;;28.02;15.90;;;-1.10;99.90;;;;;;4946399;28;20047;-87
2022/12/09 10:07:16;;;;;;;32.65;16.92;;;-1.10;99.90;;;;;;4948536;28;20123;-87
2022/12/09 10:09:57;;;;;;;32.58;14.95;;;-1.10;99.90;;;;;;4945043;29;20054;-87
2022/12/09 10:12:28;;;;;;;22.08;10.90;;;-1.10;99.90;;;;;;4942464;28;20054;-88
2022/12/09 10:14:59;;;;;;;;;;;-1.00;99.90;;;;;;4936203;28;20681;-87
2022/12/09 10:17:34;;;;;;;30.02;14.32;;;-1.00;99.90;;;;;;4942574;28;19932;-88
2022/12/09 10:20:14;;;;;;;34.08;18.05;;;-1.10;99.90;;;;;;4949700;28;20404;-87
2022/12/09 10:22:53;;;;;;;;;;;-1.00;99.90;;;;;;4938152;28;20055;-89
2022/12/09 10:25:28;;;;;;;40.33;16.52;;;-0.90;99.90;;;;;;4956517;28;19927;-88
2022/12/09 10:28:19;;;;;;;35.55;16.10;;;-0.90;99.90;;;;;;4937703;28;20056;-88
2022/12/09 10:30:52;;;;;;;24.33;14.05;;;-0.90;99.90;;;;;;4910747;29;20067;-88
2022/12/09 10:33:36;;;;;;;26.35;15.32;;;-0.90;99.90;;;;;;4899821;29;20063;-88
2022/12/09 10:36:06;;;;;;;37.03;18.73;;;-1.00;99.90;;;;;;4926489;28;20074;-89
2022/12/09 10:38:39;;;;;;;43.65;17.70;;;-0.90;99.90;;;;;;4933395;28;20062;-88
2022/12/09 10:43:33;;;;;;;27.25;15.95;;;-0.90;99.90;;;;;;4962646;28;20059;-87
2022/12/09 10:44:20;;;;;;;37.45;19.40;;;-0.90;99.90;;;;;;4944281;28;20416;-89
2022/12/09 10:47:02;;;;;;;39.75;16.42;;;-0.90;99.90;;;;;;4936503;28;20450;-90
2022/12/09 10:49:32;;;;;;;;;;;-0.90;99.90;;;;;;4946443;28;20051;-88
2022/12/09 10:52:01;;;;;;;9.57;8.68;;;-0.80;99.90;;;;;;4928982;28;19927;-88
2022/12/09 10:54:45;;;;;;;19.90;11.00;;;-0.90;99.90;;;;;;4945642;29;20059;-87
2022/12/09 10:57:14;;;;;;;38.90;18.35;;;-0.90;99.90;;;;;;4929643;29;20760;-88
2022/12/09 11:00:07;;;;;;;21.55;13.20;;;-0.90;99.90;;;;;;4953535;28;20142;-88
2022/12/09 11:02:52;;;;;;;33.22;19.27;;;-0.80;99.90;;;;;;4945842;28;20055;-89
2022/12/09 11:05:26;;;;;;;31.17;23.08;;;-0.80;99.90;;;;;;4930816;29;20535;-87
2022/12/09 11:07:59;;;;;;;37.67;17.58;;;-0.80;99.90;;;;;;4923737;28;20427;-89
2022/12/09 11:10:28;;;;;;;32.80;17.55;;;-0.80;99.90;;;;;;4935749;29;20059;-88
2022/12/09 11:13:04;;;;;;;26.60;19.02;;;-0.80;99.90;;;;;;4948866;28;20067;-88
2022/12/09 11:15:44;;;;;;;17.45;10.77;;;-0.70;99.90;;;;;;4922230;28;20062;-87
2022/12/09 11:18:28;;;;;;;37.40;18.38;;;-0.70;99.90;;;;;;4929128;29;20405;-89
2022/12/09 11:20:59;;;;;;;12.95;7.88;;;-0.70;99.90;;;;;;4933890;28;20050;-88
2022/12/09 11:23:28;;;;;;;27.42;18.90;;;-0.70;99.90;;;;;;4960166;28;20051;-88
2022/12/09 11:26:05;;;;;;;28.48;18.15;;;-0.70;99.90;;;;;;4961745;28;20386;-88
2022/12/09 11:28:39;;;;;;;13.82;12.00;;;-0.60;99.90;;;;;;4924732;29;20509;-87
2022/12/09 11:31:18;;;;;;;36.35;20.50;;;-0.60;99.90;;;;;;4926139;29;20059;-89
2022/12/09 11:34:12;;;;;;;12.23;10.13;;;-0.60;99.90;;;;;;4896624;29;20058;-88
2022/12/09 11:36:52;;;;;;;26.95;14.13;;;-0.50;99.90;;;;;;4917504;29;20531;-89
2022/12/09 11:39:25;;;;;;;31.42;18.13;;;-0.50;99.90;;;;;;4912204;28;20059;-88
2022/12/09 11:42:19;;;;;;;27.08;13.90;;;-0.40;99.90;;;;;;4948920;28;20050;-87
2022/12/09 11:45:00;;;;;;;22.88;12.05;;;-0.40;99.90;;;;;;4943520;28;20066;-87
2022/12/09 11:47:33;;;;;;;23.00;15.23;;;-0.40;99.90;;;;;;4958463;28;20058;-88
2022/12/09 11:50:24;;;;;;;26.95;14.30;;;-0.30;99.90;;;;;;4937576;28;20550;-88
2022/12/09 11:53:05;;;;;;;21.35;14.05;;;-0.30;99.90;;;;;;4945138;28;20070;-89
2022/12/09 11:55:36;;;;;;;22.05;12.68;;;-0.20;99.90;;;;;;4921780;28;20047;-88
2022/12/09 11:58:09;;;;;;;20.75;13.23;;;-0.30;99.90;;;;;;4951541;28;20684;-87
2022/12/09 12:00:50;;;;;;;18.60;10.38;;;-0.30;99.90;;;;;;4963800;28;20050;-87
2022/12/09 12:03:28;;;;;;;16.75;12.13;;;-0.40;99.90;;;;;;4923391;28;20256;-88
2022/12/09 12:05:58;;;;;;;28.27;13.88;;;-0.40;99.90;;;;;;4869080;29;20056;-88
2022/12/09 12:08:44;;;;;;;10.48;6.70;;;-0.30;99.90;;;;;;4902607;29;20568;-88
2022/12/09 12:11:17;;;;;;;9.10;7.72;;;-0.30;99.90;;;;;;4903960;28;20865;-87
2022/12/09 12:13:47;;;;;;;18.83;12.93;;;-0.30;99.90;;;;;;4898444;29;20607;-88
2022/12/09 12:16:15;;;;;;;20.75;14.60;;;-0.30;99.90;;;;;;4897563;29;20052;-88
2022/12/09 12:19:01;;;;;;;21.20;11.40;;;-0.30;99.90;;;;;;4904073;29;20129;-89
2022/12/09 12:21:58;;;;;;;9.07;7.93;;;-0.30;99.90;;;;;;4891768;29;20059;-89
2022/12/09 12:24:34;;;;;;;10.57;6.55;;;-0.30;99.90;;;;;;4869777;29;20049;-88
2022/12/09 12:27:19;;;;;;;13.90;9.20;;;-0.30;99.90;;;;;;4880209;29;20636;-89
2022/12/09 12:30:01;;;;;;;17.23;9.80;;;-0.30;99.90;;;;;;4885621;29;20099;-89
2022/12/09 12:32:39;;;;;;;15.38;9.82;;;-0.20;99.90;;;;;;4868106;29;20051;-86
2022/12/09 12:35:25;;;;;;;20.92;10.82;;;-0.20;99.90;;;;;;4887171;29;20059;-87
2022/12/09 12:38:19;;;;;;;17.55;13.32;;;-0.10;99.90;;;;;;4946640;28;20523;-88
2022/12/09 12:41:13;;;;;;;15.77;11.70;;;-0.20;99.90;;;;;;4942528;28;20055;-88
2022/12/09 12:46:55;;;;;;;15.63;9.98;;;-0.10;99.90;;;;;;4942201;28;20066;-86
2022/12/09 12:49:41;;;;;;;14.77;8.85;;;-0.20;99.90;;;;;;4944518;28;20256;-88
2022/12/09 12:52:24;;;;;;;13.45;11.70;;;-0.20;99.90;;;;;;4935759;28;20067;-87
2022/12/09 12:55:29;;;;;;;10.95;8.60;;;-0.10;99.90;;;;;;4933017;28;20062;-87
2022/12/09 12:58:29;;;;;;;18.02;11.00;;;-0.10;99.90;;;;;;4909066;29;20281;-88
2022/12/09 13:01:11;;;;;;;15.48;8.18;;;-0.10;99.90;;;;;;4931276;28;20047;-89
2022/12/09 13:04:05;;;;;;;16.70;8.48;;;-0.10;99.90;;;;;;4924070;28;20531;-87
2022/12/09 13:06:48;;;;;;;14.05;8.13;;;-0.10;99.90;;;;;;4946193;28;20523;-87
2022/12/09 13:09:26;;;;;;;17.65;11.25;;;-0.20;99.90;;;;;;4928625;28;20051;-86
2022/12/09 13:11:59;;;;;;;17.50;11.02;;;-0.20;99.90;;;;;;4926107;28;20052;-88
2022/12/09 13:14:35;;;;;;;22.15;11.85;;;-0.10;99.90;;;;;;4914586;29;20059;-86